createdAt,value
2019-05-01T00:03:14.486Z,28.70
2019-05-01T00:05:46.695Z,28.80
2019-05-01T00:08:18.291Z,28.80
2019-05-01T00:10:49.416Z,28.80
2019-05-01T00:13:20.406Z,28.90
2019-05-01T00:15:51.747Z,28.90
2019-05-01T00:18:22.828Z,29.00
2019-05-01T00:20:53.650Z,29.00
2019-05-01T00:23:24.528Z,29.10
2019-05-01T00:25:55.511Z,29.10
2019-05-01T00:28:26.291Z,29.20
2019-05-01T00:30:57.112Z,29.30
2019-05-01T00:33:28.149Z,29.30
2019-05-01T00:35:58.865Z,29.40
2019-05-01T00:38:29.624Z,29.50
2019-05-01T00:41:00.266Z,29.60
2019-05-01T00:43:31.610Z,29.60
2019-05-01T00:46:02.555Z,29.70
2019-05-01T00:48:33.589Z,29.80
2019-05-01T00:51:04.527Z,29.90
2019-05-01T00:53:35.464Z,29.90
2019-05-01T00:56:07.551Z,30.00
2019-05-01T00:58:38.282Z,30.10
2019-05-01T01:01:10.769Z,30.10
2019-05-01T01:03:42.150Z,30.20
2019-05-01T01:06:12.969Z,30.30
2019-05-01T01:08:43.927Z,30.40
2019-05-01T01:11:14.875Z,30.50
2019-05-01T01:13:45.645Z,30.60
2019-05-01T01:16:16.622Z,30.60
2019-05-01T01:18:47.617Z,30.70
2019-05-01T01:21:19.213Z,30.70
2019-05-01T01:23:50.483Z,30.80
2019-05-01T01:26:21.516Z,30.90
2019-05-01T01:28:52.228Z,30.90
2019-05-01T01:31:22.963Z,31.00
2019-05-01T01:33:53.820Z,31.10
2019-05-01T01:36:24.436Z,31.10
2019-05-01T01:38:55.115Z,31.20
2019-05-01T01:41:26.171Z,31.30
2019-05-01T01:43:58.481Z,31.40
2019-05-01T01:46:30.551Z,31.40
2019-05-01T01:49:01.819Z,31.50
2019-05-01T01:51:32.689Z,31.60
2019-05-01T01:54:03.942Z,31.70
2019-05-01T01:56:34.923Z,31.70
2019-05-01T01:59:06.531Z,31.80
2019-05-01T02:01:38.870Z,31.90
2019-05-01T02:04:11.797Z,32.00
2019-05-01T02:06:43.034Z,32.00
2019-05-01T02:09:14.089Z,32.10
2019-05-01T02:11:45.076Z,32.20
2019-05-01T02:14:16.023Z,32.20
2019-05-01T02:16:47.037Z,32.30
2019-05-01T02:19:17.901Z,32.30
2019-05-01T02:21:48.787Z,32.50
2019-05-01T02:24:19.598Z,32.50
2019-05-01T02:26:52.009Z,32.50
2019-05-01T02:29:25.306Z,32.60
2019-05-01T02:31:57.400Z,32.60
2019-05-01T02:34:29.204Z,32.70
2019-05-01T02:37:02.483Z,32.80
2019-05-01T02:39:33.976Z,32.80
2019-05-01T02:42:05.295Z,32.90
2019-05-01T02:44:38.968Z,33.00
2019-05-01T02:47:12.330Z,33.00
2019-05-01T02:49:45.536Z,33.10
2019-05-01T02:52:17.281Z,33.10
2019-05-01T02:54:50.149Z,33.20
2019-05-01T02:57:23.155Z,33.30
2019-05-01T02:59:55.406Z,33.40
2019-05-01T03:02:28.709Z,33.40
2019-05-01T03:05:00.503Z,33.50
2019-05-01T03:07:33.632Z,33.50
2019-05-01T03:10:09.367Z,33.60
2019-05-01T03:12:40.846Z,33.70
2019-05-01T03:15:13.018Z,33.80
2019-05-01T03:17:45.881Z,33.80
2019-05-01T03:20:18.267Z,33.90
2019-05-01T03:22:50.538Z,33.90
2019-05-01T03:25:21.462Z,33.90
2019-05-01T03:27:52.834Z,34.00
2019-05-01T03:30:23.839Z,34.00
2019-05-01T03:32:54.803Z,34.00
2019-05-01T03:35:25.894Z,34.10
2019-05-01T03:37:57.045Z,34.10
2019-05-01T03:40:27.992Z,34.20
2019-05-01T03:42:59.014Z,34.30
2019-05-01T03:45:33.914Z,34.30
2019-05-01T03:48:02.629Z,34.30
2019-05-01T03:50:34.112Z,34.30
2019-05-01T03:53:05.104Z,34.40
2019-05-01T03:55:35.999Z,34.40
2019-05-01T03:58:07.179Z,34.40
2019-05-01T04:00:38.121Z,34.50
2019-05-01T04:03:10.464Z,34.60
2019-05-01T04:05:41.167Z,34.70
2019-05-01T04:08:12.669Z,34.70
2019-05-01T04:10:43.553Z,34.80
2019-05-01T04:13:14.968Z,34.80
2019-05-01T04:15:46.442Z,34.90
2019-05-01T04:18:18.276Z,35.00
2019-05-01T04:20:48.972Z,35.00
2019-05-01T04:23:20.032Z,35.10
2019-05-01T04:25:51.570Z,35.20
2019-05-01T04:28:23.829Z,35.20
2019-05-01T04:30:56.338Z,35.30
2019-05-01T04:33:27.461Z,35.30
2019-05-01T04:35:59.853Z,35.40
2019-05-01T04:38:31.266Z,35.50
2019-05-01T04:41:02.562Z,35.60
2019-05-01T04:43:33.789Z,35.60
2019-05-01T04:46:04.682Z,35.70
2019-05-01T04:48:36.293Z,35.70
2019-05-01T04:51:07.391Z,35.80
2019-05-01T04:53:38.238Z,35.80
2019-05-01T04:56:09.271Z,35.70
2019-05-01T04:58:40.310Z,35.60
2019-05-01T05:01:11.342Z,35.60
2019-05-01T05:03:42.314Z,35.60
2019-05-01T05:06:13.272Z,35.50
2019-05-01T05:08:44.097Z,35.50
2019-05-01T05:11:16.611Z,35.50
2019-05-01T05:13:49.326Z,35.60
2019-05-01T05:16:21.534Z,35.60
2019-05-01T05:18:52.203Z,35.70
2019-05-01T05:21:25.344Z,35.80
2019-05-01T05:23:56.491Z,35.80
2019-05-01T05:26:27.674Z,35.90
2019-05-01T05:29:00.612Z,36.00
2019-05-01T05:31:31.836Z,36.00
2019-05-01T05:34:04.364Z,36.00
2019-05-01T05:36:37.341Z,36.00
2019-05-01T05:39:09.940Z,36.00
2019-05-01T05:41:44.161Z,36.00
2019-05-01T05:44:15.579Z,35.90
2019-05-01T05:46:46.399Z,36.00
2019-05-01T05:49:17.498Z,36.00
2019-05-01T05:51:51.482Z,36.00
2019-05-01T05:54:25.845Z,36.10
2019-05-01T05:56:59.485Z,36.10
2019-05-01T05:59:33.772Z,36.10
2019-05-01T06:02:08.334Z,36.10
2019-05-01T06:04:40.880Z,36.20
2019-05-01T06:07:14.612Z,36.30
2019-05-01T06:09:49.669Z,36.30
2019-05-01T06:12:22.250Z,36.40
2019-05-01T06:15:02.321Z,36.40
2019-05-01T06:17:35.360Z,36.40
2019-05-01T06:20:08.300Z,36.40
2019-05-01T06:22:44.858Z,36.40
2019-05-01T06:25:22.842Z,36.50
2019-05-01T06:27:49.302Z,36.50
2019-05-01T06:30:19.401Z,36.60
2019-05-01T06:32:50.372Z,36.60
2019-05-01T06:35:21.345Z,36.60
2019-05-01T06:37:55.895Z,36.70
2019-05-01T06:40:28.329Z,36.80
2019-05-01T06:42:59.377Z,36.90
2019-05-01T06:45:30.996Z,36.90
2019-05-01T06:48:03.230Z,36.90
2019-05-01T06:50:37.010Z,36.90
2019-05-01T06:53:07.591Z,36.90
2019-05-01T06:55:39.398Z,37.00
2019-05-01T06:58:14.707Z,36.90
2019-05-01T07:00:44.288Z,37.00
2019-05-01T07:03:15.570Z,37.10
2019-05-01T07:05:49.178Z,37.10
2019-05-01T07:08:24.615Z,37.10
2019-05-01T07:10:52.503Z,37.10
2019-05-01T07:13:23.322Z,37.20
2019-05-01T07:15:58.717Z,37.20
2019-05-01T07:18:29.100Z,37.20
2019-05-01T07:20:58.690Z,37.20
2019-05-01T07:23:29.675Z,37.20
2019-05-01T07:26:00.723Z,37.10
2019-05-01T07:28:34.345Z,37.10
2019-05-01T07:31:05.524Z,37.10
2019-05-01T07:33:37.215Z,37.10
2019-05-01T07:36:14.847Z,37.10
2019-05-01T07:38:42.356Z,37.10
2019-05-01T07:41:13.155Z,37.10
2019-05-01T07:43:45.705Z,37.20
2019-05-01T07:46:18.376Z,37.20
2019-05-01T07:48:48.775Z,37.30
2019-05-01T07:51:19.738Z,37.30
2019-05-01T07:53:51.262Z,37.30
2019-05-01T07:56:22.992Z,37.40
2019-05-01T07:58:54.668Z,37.40
2019-05-01T08:01:26.650Z,37.40
2019-05-01T08:03:57.277Z,37.40
2019-05-01T08:06:28.179Z,37.40
2019-05-01T08:08:59.058Z,37.40
2019-05-01T08:11:30.029Z,37.40
2019-05-01T08:14:07.381Z,37.40
2019-05-01T08:16:37.733Z,37.40
2019-05-01T08:19:07.319Z,37.50
2019-05-01T08:21:37.975Z,37.50
2019-05-01T08:24:08.900Z,37.50
2019-05-01T08:26:44.150Z,37.60
2019-05-01T08:29:13.425Z,37.60
2019-05-01T08:31:45.647Z,37.60
2019-05-01T08:34:20.726Z,37.60
2019-05-01T08:36:50.107Z,37.70
2019-05-01T08:39:23.895Z,37.70
2019-05-01T08:41:55.078Z,37.70
2019-05-01T08:44:29.685Z,37.60
2019-05-01T08:47:00.743Z,37.70
2019-05-01T08:49:32.953Z,37.60
2019-05-01T08:52:04.717Z,37.60
2019-05-01T08:54:35.974Z,37.60
2019-05-01T08:57:08.001Z,37.50
2019-05-01T08:59:39.148Z,37.50
2019-05-01T09:02:10.374Z,37.40
2019-05-01T09:04:41.356Z,37.40
2019-05-01T09:07:14.666Z,37.30
2019-05-01T09:09:45.543Z,37.30
2019-05-01T09:12:16.577Z,37.20
2019-05-01T09:14:47.521Z,37.20
2019-05-01T09:17:18.428Z,37.10
2019-05-01T09:19:49.433Z,37.10
2019-05-01T09:22:20.429Z,37.00
2019-05-01T09:24:51.238Z,37.00
2019-05-01T09:27:23.954Z,37.00
2019-05-01T09:29:56.928Z,37.00
2019-05-01T09:32:27.863Z,37.00
2019-05-01T09:34:58.521Z,37.00
2019-05-01T09:37:29.449Z,37.00
2019-05-01T09:40:04.133Z,37.00
2019-05-01T09:42:32.627Z,37.00
2019-05-01T09:45:03.437Z,37.10
2019-05-01T09:47:34.294Z,37.10
2019-05-01T09:50:06.373Z,37.10
2019-05-01T09:52:38.315Z,37.00
2019-05-01T09:55:11.638Z,37.10
2019-05-01T09:57:42.871Z,37.10
2019-05-01T10:00:15.884Z,37.10
2019-05-01T10:02:46.764Z,37.10
2019-05-01T10:05:28.338Z,37.00
2019-05-01T10:07:49.880Z,37.00
2019-05-01T10:10:24.838Z,37.00
2019-05-01T10:12:53.207Z,37.00
2019-05-01T10:15:24.095Z,37.00
2019-05-01T10:17:55.022Z,36.90
2019-05-01T10:20:25.921Z,36.90
2019-05-01T10:22:56.859Z,36.90
2019-05-01T10:25:27.801Z,36.90
2019-05-01T10:27:59.852Z,36.80
2019-05-01T10:30:31.695Z,36.80
2019-05-01T10:33:04.214Z,36.80
2019-05-01T10:35:42.809Z,36.80
2019-05-01T10:38:09.505Z,36.70
2019-05-01T10:40:40.472Z,36.70
2019-05-01T10:43:11.413Z,36.70
2019-05-01T10:45:42.588Z,36.60
2019-05-01T10:48:13.331Z,36.70
2019-05-01T10:50:44.146Z,36.60
2019-05-01T10:53:15.102Z,36.60
2019-05-01T10:55:45.998Z,36.50
2019-05-01T10:58:18.393Z,36.50
2019-05-01T11:00:50.385Z,36.40
2019-05-01T11:03:21.200Z,36.30
2019-05-01T11:05:56.048Z,36.30
2019-05-01T11:08:24.142Z,36.20
2019-05-01T11:10:55.048Z,36.20
2019-05-01T11:13:25.905Z,36.10
2019-05-01T11:15:56.777Z,36.00
2019-05-01T11:18:27.741Z,36.00
2019-05-01T11:20:58.431Z,35.90
2019-05-01T11:23:29.814Z,35.90
2019-05-01T11:26:00.646Z,35.80
2019-05-01T11:28:31.555Z,35.80
2019-05-01T11:31:02.487Z,35.70
2019-05-01T11:33:34.691Z,35.70
2019-05-01T11:36:09.561Z,35.70
2019-05-01T11:38:41.603Z,35.60
2019-05-01T11:41:13.801Z,35.50
2019-05-01T11:43:44.965Z,35.50
2019-05-01T11:46:16.007Z,35.40
2019-05-01T11:48:47.057Z,35.40
2019-05-01T11:51:17.941Z,35.30
2019-05-01T11:53:48.914Z,35.30
2019-05-01T11:56:19.907Z,35.20
2019-05-01T11:58:50.836Z,35.20
2019-05-01T12:01:23.110Z,35.20
2019-05-01T12:03:59.510Z,35.10
2019-05-01T12:06:30.339Z,35.10
2019-05-01T12:09:01.145Z,35.10
2019-05-01T12:11:33.366Z,35.00
2019-05-01T12:14:04.160Z,35.00
2019-05-01T12:16:36.529Z,34.90
2019-05-01T12:19:07.324Z,34.90
2019-05-01T12:21:42.270Z,34.90
2019-05-01T12:24:13.863Z,34.90
2019-05-01T12:26:44.846Z,34.80
2019-05-01T12:29:15.728Z,34.80
2019-05-01T12:31:46.706Z,34.70
2019-05-01T12:34:17.630Z,34.70
2019-05-01T12:36:49.410Z,34.70
2019-05-01T12:39:20.624Z,34.70
2019-05-01T12:41:52.680Z,34.60
2019-05-01T12:44:23.476Z,34.50
2019-05-01T12:46:54.176Z,34.50
2019-05-01T12:49:25.093Z,34.50
2019-05-01T12:52:09.615Z,34.40
2019-05-01T12:54:30.851Z,34.30
2019-05-01T12:57:03.430Z,34.40
2019-05-01T12:59:34.232Z,34.30
2019-05-01T13:02:05.060Z,34.30
2019-05-01T13:04:35.864Z,34.30
2019-05-01T13:07:09.181Z,34.20
2019-05-01T13:09:40.004Z,34.20
2019-05-01T13:12:10.948Z,34.20
2019-05-01T13:14:41.901Z,34.20
2019-05-01T13:17:12.693Z,34.10
2019-05-01T13:19:43.725Z,34.10
2019-05-01T13:22:14.486Z,34.10
2019-05-01T13:24:46.654Z,34.00
2019-05-01T13:27:18.915Z,34.00
2019-05-01T13:29:51.272Z,34.00
2019-05-01T13:32:23.361Z,33.90
2019-05-01T13:34:54.300Z,33.90
2019-05-01T13:37:25.140Z,33.90
2019-05-01T13:39:56.108Z,33.90
2019-05-01T13:42:26.993Z,33.90
2019-05-01T13:44:57.935Z,33.80
2019-05-01T13:47:28.985Z,33.80
2019-05-01T13:49:59.837Z,33.80
2019-05-01T13:52:30.770Z,33.70
2019-05-01T13:55:01.748Z,33.60
2019-05-01T13:57:32.730Z,33.60
2019-05-01T14:00:03.533Z,33.60
2019-05-01T14:02:34.258Z,33.50
2019-05-01T14:05:05.887Z,33.50
2019-05-01T14:07:36.680Z,33.40
2019-05-01T14:10:08.064Z,33.40
2019-05-01T14:12:38.965Z,33.30
2019-05-01T14:15:09.846Z,33.30
2019-05-01T14:17:40.715Z,33.20
2019-05-01T14:20:14.839Z,33.10
2019-05-01T14:22:45.199Z,33.10
2019-05-01T14:25:16.275Z,33.00
2019-05-01T14:27:49.219Z,33.00
2019-05-01T14:30:21.134Z,33.00
2019-05-01T14:32:51.971Z,32.90
2019-05-01T14:35:23.218Z,32.90
2019-05-01T14:37:54.095Z,32.80
2019-05-01T14:40:26.813Z,32.80
2019-05-01T14:42:57.147Z,32.80
2019-05-01T14:45:27.996Z,32.80
2019-05-01T14:47:58.628Z,32.80
2019-05-01T14:50:29.783Z,32.70
2019-05-01T14:53:00.541Z,32.70
2019-05-01T14:55:31.372Z,32.70
2019-05-01T14:58:02.232Z,32.70
2019-05-01T15:00:33.226Z,32.70
2019-05-01T15:03:04.218Z,32.70
2019-05-01T15:05:35.843Z,32.60
2019-05-01T15:08:07.182Z,32.60
2019-05-01T15:10:38.029Z,32.60
2019-05-01T15:13:10.273Z,32.60
2019-05-01T15:15:42.493Z,32.60
2019-05-01T15:18:14.553Z,32.60
2019-05-01T15:20:46.526Z,32.60
2019-05-01T15:23:17.397Z,32.60
2019-05-01T15:25:48.269Z,32.60
2019-05-01T15:28:19.260Z,32.60
2019-05-01T15:30:50.051Z,32.60
2019-05-01T15:33:21.008Z,32.60
2019-05-01T15:35:51.710Z,32.70
2019-05-01T15:38:22.487Z,32.70
2019-05-01T15:40:54.736Z,32.60
2019-05-01T15:43:26.796Z,32.60
2019-05-01T15:45:57.612Z,32.60
2019-05-01T15:48:28.583Z,32.70
2019-05-01T15:50:59.531Z,32.60
2019-05-01T15:53:30.404Z,32.60
2019-05-01T15:56:01.360Z,32.60
2019-05-01T15:58:32.153Z,32.50
2019-05-01T16:01:03.025Z,32.50
2019-05-01T16:03:33.983Z,32.40
2019-05-01T16:06:05.012Z,32.40
2019-05-01T16:08:35.839Z,32.40
2019-05-01T16:11:08.112Z,32.40
2019-05-01T16:13:39.024Z,32.30
2019-05-01T16:16:09.852Z,32.40
2019-05-01T16:18:40.814Z,32.30
2019-05-01T16:21:11.767Z,32.30
2019-05-01T16:23:42.619Z,32.40
2019-05-01T16:26:14.208Z,32.40
2019-05-01T16:28:45.163Z,32.40
2019-05-01T16:31:16.282Z,32.40
2019-05-01T16:33:47.065Z,32.40
2019-05-01T16:36:20.327Z,32.50
2019-05-01T16:38:50.396Z,32.50
2019-05-01T16:41:21.329Z,32.50
2019-05-01T16:43:53.102Z,32.60
2019-05-01T16:46:23.871Z,32.60
2019-05-01T16:48:54.848Z,32.60
2019-05-01T16:51:25.804Z,32.60
2019-05-01T16:53:56.585Z,32.60
2019-05-01T16:56:27.763Z,32.60
2019-05-01T16:58:58.560Z,32.60
2019-05-01T17:01:30.700Z,32.60
2019-05-01T17:04:01.537Z,32.60
2019-05-01T17:06:33.678Z,32.60
2019-05-01T17:09:05.873Z,32.50
2019-05-01T17:11:36.919Z,32.60
2019-05-01T17:14:09.324Z,32.50
2019-05-01T17:16:40.451Z,32.50
2019-05-01T17:19:11.358Z,32.50
2019-05-01T17:21:42.303Z,32.50
2019-05-01T17:24:13.077Z,32.40
2019-05-01T17:26:43.861Z,32.40
2019-05-01T17:29:14.597Z,32.40
2019-05-01T17:31:45.352Z,32.40
2019-05-01T17:34:16.271Z,32.40
2019-05-01T17:36:46.959Z,32.30
2019-05-01T17:39:18.761Z,32.40
2019-05-01T17:41:49.540Z,32.40
2019-05-01T17:44:24.977Z,32.30
2019-05-01T17:46:52.672Z,32.30
2019-05-01T17:49:23.614Z,32.20
2019-05-01T17:51:54.856Z,32.20
2019-05-01T17:54:25.631Z,32.20
2019-05-01T17:56:56.601Z,32.20
2019-05-01T17:59:27.452Z,32.20
2019-05-01T18:01:59.617Z,32.10
2019-05-01T18:04:31.640Z,32.10
2019-05-01T18:07:02.616Z,32.10
2019-05-01T18:09:33.347Z,32.10
2019-05-01T18:12:04.150Z,32.00
2019-05-01T18:14:35.030Z,32.00
2019-05-01T18:17:06.123Z,32.00
2019-05-01T18:19:37.003Z,31.90
2019-05-01T18:22:09.432Z,31.90
2019-05-01T18:24:41.455Z,31.90
2019-05-01T18:27:14.669Z,31.80
2019-05-01T18:29:48.175Z,31.80
2019-05-01T18:32:20.462Z,31.70
2019-05-01T18:34:51.565Z,31.60
2019-05-01T18:37:23.697Z,31.60
2019-05-01T18:39:55.779Z,31.60
2019-05-01T18:42:27.517Z,31.60
2019-05-01T18:44:58.339Z,31.60
2019-05-01T18:47:30.180Z,31.60
2019-05-01T18:50:01.053Z,31.60
2019-05-01T18:52:31.867Z,31.60
2019-05-01T18:55:02.576Z,31.60
2019-05-01T18:57:34.328Z,31.60
2019-05-01T19:00:06.635Z,31.50
2019-05-01T19:02:38.990Z,31.50
2019-05-01T19:05:10.924Z,31.50
2019-05-01T19:07:41.854Z,31.30
2019-05-01T19:10:12.633Z,31.30
2019-05-01T19:12:43.616Z,31.20
2019-05-01T19:15:15.467Z,31.10
2019-05-01T19:17:46.317Z,31.10
2019-05-01T19:20:17.322Z,31.00
2019-05-01T19:22:48.459Z,31.00
2019-05-01T19:25:19.318Z,30.90
2019-05-01T19:28:10.388Z,30.90
2019-05-01T19:30:41.366Z,30.90
2019-05-01T19:33:14.509Z,30.90
2019-05-01T19:35:45.191Z,30.90
2019-05-01T19:38:16.295Z,30.80
2019-05-01T19:40:47.440Z,30.80
2019-05-01T19:43:18.248Z,30.70
2019-05-01T19:45:49.223Z,30.70
2019-05-01T19:48:20.096Z,30.70
2019-05-01T19:50:51.255Z,30.60
2019-05-01T19:53:22.251Z,30.70
2019-05-01T19:55:53.281Z,30.70
2019-05-01T19:58:23.992Z,30.60
2019-05-01T20:00:57.534Z,30.60
2019-05-01T20:03:30.501Z,30.50
2019-05-01T20:06:05.538Z,30.50
2019-05-01T20:08:33.361Z,30.40
2019-05-01T20:11:04.175Z,30.40
2019-05-01T20:13:35.217Z,30.30
2019-05-01T20:16:07.381Z,30.30
2019-05-01T20:18:38.240Z,30.30
2019-05-01T20:21:09.265Z,30.30
2019-05-01T20:23:40.129Z,30.30
2019-05-01T20:26:11.144Z,30.30
2019-05-01T20:28:42.068Z,30.30
2019-05-01T20:31:12.925Z,30.30
2019-05-01T20:33:44.549Z,30.20
2019-05-01T20:36:15.472Z,30.20
2019-05-01T20:38:46.341Z,30.20
2019-05-01T20:41:18.045Z,30.10
2019-05-01T20:43:49.144Z,30.10
2019-05-01T20:46:21.352Z,30.10
2019-05-01T20:48:56.021Z,30.10
2019-05-01T20:51:24.535Z,30.10
2019-05-01T20:53:55.484Z,30.10
2019-05-01T20:56:27.614Z,30.10
2019-05-01T20:59:03.142Z,30.10
2019-05-01T21:01:31.013Z,30.10
2019-05-01T21:04:03.145Z,30.00
2019-05-01T21:06:39.081Z,30.00
2019-05-01T21:09:13.169Z,30.00
2019-05-01T21:11:42.289Z,30.00
2019-05-01T21:14:22.029Z,29.90
2019-05-01T21:16:46.547Z,30.00
2019-05-01T21:19:17.481Z,29.90
2019-05-01T21:21:48.289Z,29.90
2019-05-01T21:24:19.094Z,29.90
2019-05-01T21:26:50.032Z,29.80
2019-05-01T21:29:20.597Z,29.80
2019-05-01T21:31:51.474Z,29.80
2019-05-01T21:34:24.286Z,29.80
2019-05-01T21:36:54.494Z,29.80
2019-05-01T21:39:26.949Z,29.70
2019-05-01T21:41:57.196Z,29.80
2019-05-01T21:44:28.093Z,29.80
2019-05-01T21:46:59.015Z,29.80
2019-05-01T21:49:29.986Z,29.70
2019-05-01T21:52:00.951Z,29.60
2019-05-01T21:54:31.966Z,29.60
2019-05-01T21:57:02.938Z,29.50
2019-05-01T21:59:35.349Z,29.60
2019-05-01T22:02:09.973Z,29.50
2019-05-01T22:04:37.901Z,29.50
2019-05-01T22:07:09.078Z,29.50
2019-05-01T22:09:40.738Z,29.50
2019-05-01T22:12:12.990Z,29.50
2019-05-01T22:14:45.394Z,29.50
2019-05-01T22:17:17.749Z,29.50
2019-05-01T22:19:48.793Z,29.60
2019-05-01T22:22:20.977Z,29.50
2019-05-01T22:24:51.610Z,29.50
2019-05-01T22:27:23.953Z,29.50
